Time;durP1;ratioP1;P1;durP2;ratioP2;P2;SDS_P1;SDS_P2;PMS_P1;PMS_P2;Temp;Humidity;BMP_temperature;BMP_pressure;BME280_temperature;BME280_humidity;BME280_pressure;Samples;Min_cycle;Max_cycle;Signal;HPM_P1;HPM_P2
2022/09/09 00:00:24;;;;;;;4.60;2.63;;;;;;;-145.18;100.00;46660.41;4955317;29;20077;-70
2022/09/09 00:03:14;;;;;;;4.87;2.53;;;;;;;-145.18;100.00;46660.41;4954731;29;20027;-70
2022/09/09 00:06:13;;;;;;;4.93;2.40;;;;;;;-145.18;100.00;46660.41;4955243;29;20027;-70
2022/09/09 00:09:01;;;;;;;5.03;2.27;;;;;;;-145.18;100.00;46660.41;4955245;29;20031;-70
2022/09/09 00:11:47;;;;;;;6.77;2.43;;;;;;;-145.18;100.00;46660.41;4954936;29;20031;-70
2022/09/09 00:14:33;;;;;;;7.23;2.30;;;;;;;-145.18;100.00;46660.41;4955168;29;20038;-70
2022/09/09 00:17:02;;;;;;;;;;;;;;;-145.18;100.00;46660.41;4955339;29;20059;-70
2022/09/09 00:19:37;;;;;;;3.70;2.60;;;;;;;-145.18;100.00;46660.41;4955259;29;20058;-70
2022/09/09 00:22:15;;;;;;;8.80;3.15;;;;;;;-145.18;100.00;46660.41;4954779;29;20046;-70
2022/09/09 00:25:22;;;;;;;3.60;2.83;;;;;;;-145.18;100.00;46660.41;4955027;29;20023;-70
2022/09/09 00:27:50;;;;;;;8.07;3.30;;;;;;;-145.18;100.00;46660.41;4954259;29;20146;-70
2022/09/09 00:30:24;;;;;;;9.23;3.20;;;;;;;-145.18;100.00;46660.41;4954929;29;20035;-70
2022/09/09 00:32:54;;;;;;;7.27;3.50;;;;;;;-145.18;100.00;46660.41;4954504;29;20035;-70
2022/09/09 00:35:27;;;;;;;7.43;3.70;;;;;;;-145.18;100.00;46660.41;4954878;29;20098;-70
2022/09/09 00:37:56;;;;;;;6.67;3.53;;;;;;;-145.18;100.00;46660.41;4954213;29;20520;-71
2022/09/09 00:40:30;;;;;;;9.07;3.43;;;;;;;-145.18;100.00;46660.41;4954761;28;20476;-71
2022/09/09 00:43:18;;;;;;;7.87;3.63;;;;;;;-145.18;100.00;46660.41;4954127;29;20085;-71
2022/09/09 00:46:06;;;;;;;7.03;3.70;;;;;;;-145.18;100.00;46660.41;4954437;29;20024;-70
2022/09/09 00:48:47;;;;;;;7.23;3.50;;;;;;;-145.18;100.00;46660.41;4954215;28;20594;-70
2022/09/09 00:51:25;;;;;;;7.13;3.70;;;;;;;-145.18;100.00;46660.41;4937143;29;20556;-70
2022/09/09 00:54:06;;;;;;;6.73;3.17;;;;;;;-145.18;100.00;46660.41;4954169;29;20046;-70
2022/09/09 00:57:02;;;;;;;6.67;3.53;;;;;;;-145.18;100.00;46660.41;4954053;28;20023;-70
2022/09/09 00:59:45;;;;;;;5.00;2.85;;;;;;;-145.18;100.00;46660.41;4946528;29;20039;-70
2022/09/09 01:02:30;;;;;;;5.83;3.17;;;;;;;-145.18;100.00;46660.41;4953892;29;20035;-70
2022/09/09 01:05:05;;;;;;;8.93;3.30;;;;;;;-145.18;100.00;46660.41;4953120;28;20051;-70
2022/09/09 01:07:31;;;;;;;7.82;3.88;;;;;;;-145.18;100.00;46660.41;4953963;29;20031;-70
2022/09/09 01:10:00;;;;;;;5.83;3.70;;;;;;;-145.18;100.00;46660.41;4954081;29;20043;-70
2022/09/09 01:12:42;;;;;;;8.53;4.23;;;;;;;-145.18;100.00;46660.41;4953909;29;20027;-70
2022/09/09 01:15:17;;;;;;;8.30;4.00;;;;;;;-145.18;100.00;46660.41;4953997;29;20488;-70
2022/09/09 01:17:42;;;;;;;;;;;;;;;-145.18;100.00;46660.41;4954283;29;20034;-70
2022/09/09 01:20:20;;;;;;;6.60;4.20;;;;;;;-145.18;100.00;46660.41;4954060;29;19918;-70
2022/09/09 01:23:11;;;;;;;9.70;3.90;;;;;;;-145.18;100.00;46660.41;4953224;28;20039;-70
2022/09/09 01:26:12;;;;;;;8.87;4.33;;;;;;;-145.18;100.00;46660.41;4953837;29;20042;-71
2022/09/09 01:28:39;;;;;;;9.50;4.40;;;;;;;-145.18;100.00;46660.41;4953063;29;20023;-70
2022/09/09 01:31:06;;;;;;;7.40;4.27;;;;;;;-145.18;100.00;46660.41;4953776;29;20039;-70
2022/09/09 01:33:32;;;;;;;6.50;3.90;;;;;;;-145.18;100.00;46660.41;4953226;28;20038;-70
2022/09/09 01:36:06;;;;;;;6.17;4.30;;;;;;;-145.18;100.00;46660.41;4953408;28;20039;-71
2022/09/09 01:38:32;;;;;;;5.73;3.93;;;;;;;-145.18;100.00;46660.41;4953027;28;20023;-71
2022/09/09 01:40:58;;;;;;;6.07;3.83;;;;;;;-145.18;100.00;46660.41;4953793;29;20039;-71
2022/09/09 01:43:25;;;;;;;10.67;4.23;;;;;;;-145.18;100.00;46660.41;4953367;29;20028;-70
2022/09/09 01:45:54;;;;;;;8.40;4.40;;;;;;;-145.18;100.00;46660.41;4953114;29;20400;-71
2022/09/09 01:48:22;;;;;;;6.60;4.40;;;;;;;-145.18;100.00;46660.41;4953162;29;20023;-71
2022/09/09 01:50:47;;;;;;;7.77;3.87;;;;;;;-145.18;100.00;46660.41;4953385;29;20063;-71
2022/09/09 01:53:16;;;;;;;7.10;4.30;;;;;;;-145.18;100.00;46660.41;4952547;28;20070;-70
2022/09/09 01:56:02;;;;;;;6.73;3.90;;;;;;;-145.18;100.00;46660.41;4953129;28;20027;-70
2022/09/09 01:59:02;;;;;;;13.90;4.72;;;;;;;-145.18;100.00;46660.41;4953171;29;20544;-71
2022/09/09 02:04:03;;;;;;;10.93;4.17;;;;;;;-145.18;100.00;46660.41;4946700;23;20047;-71
2022/09/09 02:06:35;;;;;;;6.20;4.03;;;;;;;-145.18;100.00;46660.41;4952640;28;20439;-71
2022/09/09 02:09:04;;;;;;;10.00;4.27;;;;;;;-145.18;100.00;46660.41;4952620;29;20050;-71
2022/09/09 02:11:30;;;;;;;12.27;4.93;;;;;;;-145.18;100.00;46660.41;4952780;29;20087;-71
2022/09/09 02:14:07;;;;;;;7.13;3.90;;;;;;;-145.18;100.00;46660.41;4952356;29;20042;-71
2022/09/09 02:16:39;;;;;;;6.20;4.10;;;;;;;-145.18;100.00;46660.41;4953055;29;20538;-71
2022/09/09 02:19:11;;;;;;;6.53;4.10;;;;;;;-145.18;100.00;46660.41;4952730;29;20506;-71
2022/09/09 02:21:37;;;;;;;10.97;4.03;;;;;;;-145.18;100.00;46660.41;4952775;29;20110;-71
2022/09/09 02:24:08;;;;;;;9.33;4.70;;;;;;;-145.18;100.00;46660.41;4952549;29;20119;-71
2022/09/09 02:26:39;;;;;;;6.93;3.97;;;;;;;-145.18;100.00;46660.41;4952837;28;20034;-72
2022/09/09 02:29:19;;;;;;;8.07;3.80;;;;;;;-145.18;100.00;46660.41;4935219;29;20042;-72
2022/09/09 02:31:47;;;;;;;13.87;4.37;;;;;;;-145.18;100.00;46660.41;4952194;28;20384;-72
2022/09/09 02:34:16;;;;;;;10.70;4.80;;;;;;;-145.18;100.00;46660.41;4953078;29;20027;-72
2022/09/09 02:36:45;;;;;;;10.53;4.23;;;;;;;-145.18;100.00;46660.41;4952205;28;20070;-71
2022/09/09 02:39:11;;;;;;;9.27;4.23;;;;;;;-145.18;100.00;46660.41;4952563;29;20083;-71
2022/09/09 02:41:39;;;;;;;7.67;3.63;;;;;;;-145.18;100.00;46660.41;4952830;29;20039;-72
2022/09/09 02:44:10;;;;;;;9.10;4.43;;;;;;;-145.18;100.00;46660.41;4952558;29;20423;-71
2022/09/09 02:46:44;;;;;;;12.83;4.83;;;;;;;-145.18;100.00;46660.41;4952646;29;20488;-72
2022/09/09 02:49:22;;;;;;;16.87;4.07;;;;;;;-145.18;100.00;46660.41;4952664;29;20476;-72
2022/09/09 02:52:02;;;;;;;8.17;4.03;;;;;;;-145.18;100.00;46660.41;4952242;29;20110;-72
2022/09/09 02:54:31;;;;;;;10.43;4.30;;;;;;;-145.18;100.00;46660.41;4952579;29;20079;-72
2022/09/09 02:57:10;;;;;;;7.37;5.40;;;;;;;-145.18;100.00;46660.41;4951671;29;20086;-72
2022/09/09 02:59:37;;;;;;;9.17;4.27;;;;;;;-145.18;100.00;46660.41;4952561;29;20031;-72
2022/09/09 03:02:02;;;;;;;8.77;4.50;;;;;;;-145.18;100.00;46660.41;4960067;28;20615;-72
2022/09/09 03:04:29;;;;;;;11.80;4.57;;;;;;;-145.18;100.00;46660.41;4972244;28;20109;-72
2022/09/09 03:06:56;;;;;;;9.83;4.73;;;;;;;-145.18;100.00;46660.41;4975001;28;20475;-72
2022/09/09 03:09:21;;;;;;;13.57;4.20;;;;;;;-145.18;100.00;46660.41;4975125;28;20035;-72
2022/09/09 03:11:46;;;;;;;7.30;4.13;;;;;;;-145.18;100.00;46660.41;4975357;28;20595;-72
2022/09/09 03:14:12;;;;;;;7.57;4.70;;;;;;;-145.18;100.00;46660.41;4958285;28;20047;-72
2022/09/09 03:16:37;;;;;;;9.97;4.77;;;;;;;-145.18;100.00;46660.41;4975753;28;20034;-72
2022/09/09 03:19:03;;;;;;;9.53;5.00;;;;;;;-145.18;100.00;46660.41;4975056;28;20061;-72
2022/09/09 03:21:28;;;;;;;18.47;4.93;;;;;;;-145.18;100.00;46660.41;4975694;28;20038;-72
2022/09/09 03:23:54;;;;;;;12.20;5.20;;;;;;;-145.18;100.00;46660.41;4975039;28;20042;-72
2022/09/09 03:26:19;;;;;;;10.07;5.10;;;;;;;-145.18;100.00;46660.41;4975680;28;20027;-72
2022/09/09 03:28:45;;;;;;;11.23;5.80;;;;;;;-145.18;100.00;46660.41;4974830;28;20030;-73
2022/09/09 03:31:11;;;;;;;8.57;4.67;;;;;;;-145.18;100.00;46660.41;4975711;28;20031;-72
2022/09/09 03:33:40;;;;;;;12.80;5.00;;;;;;;-145.18;100.00;46660.41;4974755;28;20039;-72
2022/09/09 03:36:08;;;;;;;7.23;4.00;;;;;;;-145.18;100.00;46660.41;4975149;28;20242;-72
2022/09/09 03:38:33;;;;;;;7.27;4.83;;;;;;;-145.18;100.00;46660.41;4974845;28;20042;-72
2022/09/09 03:41:01;;;;;;;8.47;4.50;;;;;;;-145.18;100.00;46660.41;4957733;28;20023;-72
2022/09/09 03:43:28;;;;;;;7.57;4.10;;;;;;;-145.18;100.00;46660.41;4974912;28;20037;-73
2022/09/09 03:45:56;;;;;;;7.50;4.77;;;;;;;-145.18;100.00;46660.41;4974957;28;20050;-72
2022/09/09 03:48:23;;;;;;;8.80;4.97;;;;;;;-145.18;100.00;46660.41;4974803;28;20026;-73
2022/09/09 03:50:50;;;;;;;9.77;4.10;;;;;;;-145.18;100.00;46660.41;4974954;28;20039;-73
2022/09/09 03:53:17;;;;;;;9.93;4.20;;;;;;;-145.18;100.00;46660.41;4974507;28;20133;-72
2022/09/09 03:55:47;;;;;;;11.03;4.63;;;;;;;-145.18;100.00;46660.41;4975070;28;20034;-72
2022/09/09 03:58:14;;;;;;;11.53;3.90;;;;;;;-145.18;100.00;46660.41;4974654;28;20406;-72
2022/09/09 04:00:42;;;;;;;14.30;4.20;;;;;;;-145.18;100.00;46660.41;4975209;28;20038;-72
2022/09/09 04:03:09;;;;;;;10.53;4.20;;;;;;;-145.18;100.00;46660.41;4974182;28;20058;-73
2022/09/09 04:05:35;;;;;;;11.50;4.43;;;;;;;-145.18;100.00;46660.41;4974892;28;20034;-73
2022/09/09 04:08:00;;;;;;;10.50;4.10;;;;;;;-145.18;100.00;46660.41;4974297;28;20038;-73
2022/09/09 04:10:26;;;;;;;10.83;3.83;;;;;;;-145.18;100.00;46660.41;4974761;28;20545;-73
2022/09/09 04:12:52;;;;;;;7.20;4.00;;;;;;;-145.18;100.00;46660.41;4974156;28;20041;-72
2022/09/09 04:15:18;;;;;;;11.17;5.03;;;;;;;-145.18;100.00;46660.41;4974208;28;20071;-73
2022/09/09 04:17:43;;;;;;;10.47;4.97;;;;;;;-145.18;100.00;46660.41;4974426;28;20085;-72
2022/09/09 04:20:11;;;;;;;11.57;4.00;;;;;;;-145.18;100.00;46660.41;4974342;28;20064;-73
2022/09/09 04:22:38;;;;;;;12.53;4.43;;;;;;;-145.18;100.00;46660.41;4974212;28;20063;-73
2022/09/09 04:25:05;;;;;;;14.80;4.00;;;;;;;-145.18;100.00;46660.41;4973551;28;20047;-73
2022/09/09 04:27:31;;;;;;;10.27;4.17;;;;;;;-145.18;100.00;46660.41;4970549;28;20089;-73
2022/09/09 04:29:57;;;;;;;9.30;3.73;;;;;;;-145.18;100.00;46660.41;4973544;28;20034;-73
2022/09/09 04:32:23;;;;;;;8.63;3.97;;;;;;;-145.18;100.00;46660.41;4973236;28;20034;-73
2022/09/09 04:34:48;;;;;;;11.73;4.30;;;;;;;-145.18;100.00;46660.41;4973770;28;20034;-73
2022/09/09 04:37:14;;;;;;;12.20;4.23;;;;;;;-145.18;100.00;46660.41;4973633;28;20515;-73
2022/09/09 04:39:39;;;;;;;9.70;4.00;;;;;;;-145.18;100.00;46660.41;4969489;28;20403;-73
2022/09/09 04:42:05;;;;;;;14.53;4.07;;;;;;;-145.18;100.00;46660.41;4967551;28;20035;-73
2022/09/09 04:44:30;;;;;;;9.83;3.40;;;;;;;-145.18;100.00;46660.41;4973515;28;20143;-73
2022/09/09 04:46:56;;;;;;;12.93;3.80;;;;;;;-145.18;100.00;46660.41;4971314;28;20043;-73
2022/09/09 04:49:21;;;;;;;11.07;3.90;;;;;;;-145.18;100.00;46660.41;4968082;28;20147;-73
2022/09/09 04:51:49;;;;;;;12.93;4.10;;;;;;;-145.18;100.00;46660.41;4973052;28;20031;-73
2022/09/09 04:54:14;;;;;;;10.10;3.50;;;;;;;-145.18;100.00;46660.41;4973074;28;20124;-73
2022/09/09 04:56:41;;;;;;;10.83;4.37;;;;;;;-145.18;100.00;46660.41;4971234;28;20070;-73
2022/09/09 04:59:07;;;;;;;14.67;3.97;;;;;;;-145.18;100.00;46660.41;4969330;28;20512;-73
2022/09/09 05:01:33;;;;;;;12.60;3.83;;;;;;;-145.18;100.00;46660.41;4965456;28;20618;-73
2022/09/09 05:03:58;;;;;;;15.57;4.57;;;;;;;-145.18;100.00;46660.41;4972733;28;20053;-74
2022/09/09 05:06:24;;;;;;;12.03;4.00;;;;;;;-145.18;100.00;46660.41;4973791;28;20030;-73
2022/09/09 05:08:50;;;;;;;9.60;4.13;;;;;;;-145.18;100.00;46660.41;4973260;28;20147;-73
2022/09/09 05:11:18;;;;;;;14.03;4.63;;;;;;;-145.18;100.00;46660.41;4973750;28;20093;-73
2022/09/09 05:13:44;;;;;;;15.37;4.67;;;;;;;-145.18;100.00;46660.41;4972835;28;20042;-73
2022/09/09 05:16:13;;;;;;;12.60;4.03;;;;;;;-145.18;100.00;46660.41;4973471;28;20035;-73
2022/09/09 05:18:39;;;;;;;11.73;3.90;;;;;;;-145.18;100.00;46660.41;4971646;28;20038;-73
2022/09/09 05:21:06;;;;;;;10.97;4.13;;;;;;;-145.18;100.00;46660.41;4970801;28;20122;-74
2022/09/09 05:23:33;;;;;;;14.87;4.03;;;;;;;-145.18;100.00;46660.41;4971556;28;20026;-74
2022/09/09 05:25:59;;;;;;;15.17;4.10;;;;;;;-145.18;100.00;46660.41;4983325;28;20038;-73
2022/09/09 05:28:25;;;;;;;16.83;4.10;;;;;;;-145.18;100.00;46660.41;4983703;28;20037;-73
2022/09/09 05:31:00;;;;;;;8.47;3.47;;;;;;;-145.18;100.00;46660.41;4972836;28;20062;-73
2022/09/09 05:33:26;;;;;;;13.63;4.07;;;;;;;-145.18;100.00;46660.41;4972844;28;20480;-73
2022/09/09 05:35:58;;;;;;;11.60;4.63;;;;;;;-145.18;100.00;46660.41;4972815;28;20041;-74
2022/09/09 05:38:25;;;;;;;19.00;3.80;;;;;;;-145.18;100.00;46660.41;4972542;28;20035;-73
2022/09/09 05:40:51;;;;;;;12.60;4.87;;;;;;;-145.18;100.00;46660.41;4972415;28;20039;-74
2022/09/09 05:43:17;;;;;;;15.30;3.97;;;;;;;-145.18;100.00;46660.41;4971873;28;20039;-73
2022/09/09 05:45:42;;;;;;;12.67;3.90;;;;;;;-145.18;100.00;46660.41;4973020;28;20066;-73
2022/09/09 05:48:08;;;;;;;15.90;4.47;;;;;;;-145.18;100.00;46660.41;4972508;28;20042;-74
2022/09/09 05:50:33;;;;;;;10.77;3.90;;;;;;;-145.18;100.00;46660.41;4973044;28;20065;-74
2022/09/09 05:52:58;;;;;;;10.70;3.33;;;;;;;-145.18;100.00;46660.41;4971395;28;20086;-74
2022/09/09 05:55:25;;;;;;;10.23;3.57;;;;;;;-145.18;100.00;46658.44;4972623;28;20097;-73
2022/09/09 05:57:51;;;;;;;8.27;4.10;;;;;;;-145.18;100.00;46660.41;4972099;28;20514;-73
2022/09/09 06:00:17;;;;;;;19.23;5.40;;;;;;;-145.18;100.00;46658.44;4971675;28;20554;-73
2022/09/09 06:02:43;;;;;;;16.13;4.20;;;;;;;-145.18;100.00;46660.41;4966920;28;20059;-74
2022/09/09 06:05:10;;;;;;;10.50;3.77;;;;;;;-145.18;100.00;46660.41;4969507;28;20086;-74
2022/09/09 06:07:36;;;;;;;13.47;4.07;;;;;;;-145.18;100.00;46660.41;4968785;28;20676;-73
2022/09/09 06:10:01;;;;;;;8.97;3.30;;;;;;;-145.18;100.00;46660.41;4971753;28;20086;-74
2022/09/09 06:12:27;;;;;;;13.77;3.57;;;;;;;-145.18;100.00;46660.41;4954397;28;20031;-74
2022/09/09 06:14:52;;;;;;;18.10;3.80;;;;;;;-145.18;100.00;46660.41;4954199;28;20043;-74
2022/09/09 06:17:19;;;;;;;13.67;3.70;;;;;;;-145.18;100.00;46660.41;4971619;28;20066;-74
2022/09/09 06:19:44;;;;;;;14.20;3.73;;;;;;;-145.18;100.00;46660.41;4953290;28;20070;-74
2022/09/09 06:22:11;;;;;;;12.07;3.87;;;;;;;-145.18;100.00;46627.19;4971799;28;20031;-74
2022/09/09 06:24:37;;;;;;;13.10;4.10;;;;;;;-145.18;100.00;46623.28;4972152;28;20042;-74
2022/09/09 06:27:03;;;;;;;14.87;3.63;;;;;;;-145.18;100.00;46625.22;4953360;28;20038;-74
2022/09/09 06:29:28;;;;;;;13.77;3.63;;;;;;;-145.18;100.00;46623.28;4970360;28;20041;-73
2022/09/09 06:31:54;;;;;;;13.97;3.40;;;;;;;-145.18;100.00;46625.22;4972013;28;20081;-73
2022/09/09 06:34:19;;;;;;;14.90;3.70;;;;;;;-145.18;100.00;46621.31;4970590;28;20403;-73
2022/09/09 06:36:45;;;;;;;14.47;4.27;;;;;;;-145.18;100.00;46623.28;4970253;28;20097;-74
2022/09/09 06:39:11;;;;;;;13.90;3.80;;;;;;;-145.18;100.00;46656.50;4971093;28;20031;-73
2022/09/09 06:41:38;;;;;;;12.40;4.17;;;;;;;-145.18;100.00;46621.31;4972192;28;20038;-73
2022/09/09 06:44:03;;;;;;;13.80;4.27;;;;;;;-145.18;100.00;46623.28;4971328;28;20045;-73
2022/09/09 06:46:32;;;;;;;11.60;4.10;;;;;;;-145.18;100.00;46625.22;4972139;28;20035;-73
2022/09/09 06:48:59;;;;;;;16.30;3.83;;;;;;;-145.18;100.00;46623.28;4971437;28;20057;-74
2022/09/09 06:51:33;;;;;;;13.67;3.40;;;;;;;-145.18;100.00;46621.31;4972204;28;20038;-73
2022/09/09 06:54:01;;;;;;;11.70;3.83;;;;;;;-145.18;100.00;46625.22;4971324;28;20034;-73
2022/09/09 06:56:29;;;;;;;12.63;4.20;;;;;;;-145.18;100.00;46623.28;4971920;28;20054;-73
2022/09/09 06:58:58;;;;;;;19.27;4.07;;;;;;;-145.18;100.00;46623.28;4971196;28;20518;-73
2022/09/09 07:01:27;;;;;;;13.03;2.77;;;;;;;-145.18;100.00;46623.28;4971738;28;20125;-73
2022/09/09 07:03:55;;;;;;;12.43;3.20;;;;;;;-145.18;100.00;46625.22;4971210;28;20051;-73
2022/09/09 07:06:26;;;;;;;11.13;3.30;;;;;;;-145.18;100.00;46625.22;4971734;28;20514;-73
2022/09/09 07:08:56;;;;;;;12.43;4.30;;;;;;;-145.18;100.00;46625.22;4971217;28;20073;-73
2022/09/09 07:11:23;;;;;;;9.07;3.10;;;;;;;-145.18;100.00;46627.19;4971868;28;20038;-73
2022/09/09 07:13:49;;;;;;;13.53;3.73;;;;;;;-145.18;100.00;46629.13;4971266;28;20372;-73
2022/09/09 07:16:17;;;;;;;10.03;3.20;;;;;;;-145.18;100.00;46629.13;4971595;28;20062;-73
2022/09/09 07:18:43;;;;;;;17.97;3.60;;;;;;;-145.18;100.00;46631.09;4971422;28;20027;-73
2022/09/09 07:21:10;;;;;;;9.17;3.20;;;;;;;-145.18;100.00;46635.00;4971286;28;20554;-73
2022/09/09 07:23:35;;;;;;;12.93;2.77;;;;;;;-145.18;100.00;46631.09;4971499;28;20047;-73
2022/09/09 07:26:01;;;;;;;15.57;3.90;;;;;;;-145.18;100.00;46640.88;4971320;28;20101;-74
2022/09/09 07:28:27;;;;;;;14.57;3.50;;;;;;;-145.18;100.00;46635.00;4971379;28;20031;-73
2022/09/09 07:31:04;;;;;;;13.70;3.53;;;;;;;-145.18;100.00;46638.91;4971411;28;20031;-73
2022/09/09 07:33:31;;;;;;;14.00;3.73;;;;;;;-145.18;100.00;46640.88;4971276;28;20122;-73
2022/09/09 07:36:06;;;;;;;13.10;3.40;;;;;;;-145.18;100.00;46638.91;4971408;28;20043;-73
2022/09/09 07:38:32;;;;;;;;;;;;;;;-145.18;100.00;46636.94;4971605;28;20027;-73
2022/09/09 07:41:06;;;;;;;9.68;2.80;;;;;;;-145.18;100.00;46636.94;4971626;28;20279;-73
2022/09/09 07:43:33;;;;;;;14.37;3.00;;;;;;;-145.18;100.00;46636.94;4971091;28;20558;-73
2022/09/09 07:46:01;;;;;;;12.30;2.67;;;;;;;-145.18;100.00;46640.88;4971198;28;20031;-73
2022/09/09 07:48:26;;;;;;;13.83;2.77;;;;;;;-145.18;100.00;46642.81;4971153;28;20069;-73
2022/09/09 07:50:52;;;;;;;11.37;2.70;;;;;;;-145.18;100.00;46640.88;4972383;28;20050;-73
2022/09/09 07:53:19;;;;;;;11.00;2.77;;;;;;;-145.18;100.00;46642.81;4973816;28;20062;-73
2022/09/09 07:55:45;;;;;;;12.33;3.20;;;;;;;-145.18;100.00;46648.69;4974769;28;20035;-73
2022/09/09 07:58:10;;;;;;;22.10;4.20;;;;;;;-145.18;100.00;46646.72;4974213;28;20385;-73
2022/09/09 08:00:36;;;;;;;9.40;3.37;;;;;;;-145.18;100.00;46644.78;4973796;28;20047;-73
2022/09/09 08:03:01;;;;;;;12.97;3.50;;;;;;;-145.18;100.00;46648.69;4973770;28;20055;-73
2022/09/09 08:05:28;;;;;;;11.23;2.87;;;;;;;-145.18;100.00;46646.72;4974372;28;20039;-73
2022/09/09 08:07:53;;;;;;;20.33;2.93;;;;;;;-145.18;100.00;46648.69;4973997;28;20027;-73
2022/09/09 08:10:18;;;;;;;8.93;2.60;;;;;;;-145.18;100.00;46650.63;4974873;28;20388;-73
2022/09/09 08:12:44;;;;;;;14.77;3.07;;;;;;;-145.18;100.00;46648.69;4974390;28;20514;-73
2022/09/09 08:15:10;;;;;;;14.83;3.50;;;;;;;-145.18;100.00;46650.63;4974074;28;20030;-73
2022/09/09 08:17:37;;;;;;;14.50;3.77;;;;;;;-145.18;100.00;46650.63;4972388;28;20054;-73
2022/09/09 08:20:05;;;;;;;10.57;2.90;;;;;;;-145.18;100.00;46648.69;4973623;28;20399;-73
2022/09/09 08:22:31;;;;;;;17.87;3.43;;;;;;;-145.18;100.00;46650.63;4956858;28;20035;-73
2022/09/09 08:24:57;;;;;;;15.67;3.43;;;;;;;-145.18;100.00;46650.63;4971514;28;20446;-73
2022/09/09 08:27:22;;;;;;;10.07;3.20;;;;;;;-145.18;100.00;46654.53;4970104;28;20093;-73
2022/09/09 08:29:47;;;;;;;10.40;2.33;;;;;;;-145.18;100.00;46656.50;4973496;28;20170;-73
2022/09/09 08:32:13;;;;;;;12.20;2.97;;;;;;;-145.18;100.00;46654.53;4974832;28;20101;-73
2022/09/09 08:34:38;;;;;;;8.83;2.60;;;;;;;-145.18;100.00;46654.53;4972297;28;20129;-73
2022/09/09 08:37:03;;;;;;;14.03;3.60;;;;;;;-145.18;100.00;46648.69;4973329;28;20046;-73
2022/09/09 08:39:30;;;;;;;14.10;3.20;;;;;;;-145.18;100.00;46656.50;4973378;28;20046;-73
2022/09/09 08:42:00;;;;;;;17.00;3.40;;;;;;;-145.18;100.00;46656.50;4973818;28;20713;-73
2022/09/09 08:44:35;;;;;;;11.30;2.70;;;;;;;-145.18;100.00;46654.53;4973085;28;20031;-73
2022/09/09 08:47:16;;;;;;;;;;;;;;;-145.18;100.00;46656.50;4973546;28;20030;-70
2022/09/09 08:49:45;;;;;;;11.97;3.13;;;;;;;-145.18;100.00;46652.59;4972328;28;19980;-73
2022/09/09 08:52:31;;;;;;;19.80;3.50;;;;;;;-145.18;100.00;46652.59;4967929;28;20050;-73
2022/09/09 08:55:02;;;;;;;10.48;2.67;;;;;;;-145.18;100.00;46656.50;4972367;28;20042;-73
2022/09/09 08:57:30;;;;;;;13.70;2.80;;;;;;;-145.18;100.00;46652.59;4972906;28;20113;-73
2022/09/09 08:59:57;;;;;;;16.17;3.70;;;;;;;-145.18;100.00;46652.59;4952143;28;20046;-73
2022/09/09 09:02:28;;;;;;;14.53;3.60;;;;;;;-145.18;100.00;46656.50;4968672;28;20062;-73
2022/09/09 09:05:05;;;;;;;17.27;3.33;;;;;;;-145.18;100.00;46652.59;4961592;28;20511;-73
2022/09/09 09:07:54;;;;;;;13.53;3.17;;;;;;;-145.18;100.00;46654.53;4962871;28;20033;-73
2022/09/09 09:10:40;;;;;;;13.00;2.93;;;;;;;-145.18;100.00;46652.59;4952741;28;20366;-73
2022/09/09 09:13:13;;;;;;;9.23;2.73;;;;;;;-145.18;100.00;46648.69;4952674;28;20396;-73
2022/09/09 09:15:41;;;;;;;14.07;2.60;;;;;;;-145.18;100.00;46652.59;4955729;28;20137;-73
2022/09/09 09:18:12;;;;;;;11.90;3.13;;;;;;;-145.18;100.00;46654.53;4971792;28;20026;-73
2022/09/09 09:20:58;;;;;;;11.90;2.43;;;;;;;-145.18;100.00;46656.50;4966865;28;20384;-72
2022/09/09 09:23:26;;;;;;;;;;;;;;;-145.18;100.00;46658.44;4970470;28;20027;-73
2022/09/09 09:25:59;;;;;;;11.37;2.60;;;;;;;-145.18;100.00;46656.50;4971503;28;20367;-72
2022/09/09 09:28:28;;;;;;;7.57;2.23;;;;;;;-145.18;100.00;46658.44;4971245;28;20025;-72
2022/09/09 09:31:01;;;;;;;12.17;2.53;;;;;;;-145.18;100.00;46658.44;4968176;28;20055;-72
2022/09/09 09:33:49;;;;;;;15.53;3.13;;;;;;;-145.18;100.00;46662.34;4972924;28;20117;-73
2022/09/09 09:36:16;;;;;;;11.47;2.87;;;;;;;-145.18;100.00;46656.50;4972886;28;20077;-73
2022/09/09 09:38:57;;;;;;;11.77;2.40;;;;;;;-145.18;100.00;46656.50;4972500;28;20114;-72
2022/09/09 09:41:49;;;;;;;16.73;3.17;;;;;;;-145.18;100.00;46656.50;4973107;28;20467;-72
2022/09/09 09:44:32;;;;;;;11.60;3.17;;;;;;;-145.18;100.00;46646.72;4932048;29;20047;-73
2022/09/09 09:47:11;;;;;;;9.03;2.60;;;;;;;-145.18;100.00;46654.53;4954963;28;20089;-73
2022/09/09 09:49:36;;;;;;;19.83;3.23;;;;;;;-145.18;100.00;46652.59;4965624;28;20150;-73
2022/09/09 09:52:07;;;;;;;15.43;2.67;;;;;;;-145.18;100.00;46652.59;4971750;28;20515;-73
2022/09/09 09:54:38;;;;;;;10.43;2.70;;;;;;;-145.18;100.00;46646.72;4971363;28;20061;-73
2022/09/09 09:57:16;;;;;;;8.57;2.10;;;;;;;-145.18;100.00;46654.53;4972079;28;20031;-73
2022/09/09 09:59:42;;;;;;;7.77;2.30;;;;;;;-145.18;100.00;46644.78;4972255;28;20274;-74
2022/09/09 10:02:25;;;;;;;9.73;2.47;;;;;;;-145.18;100.00;46650.63;4971826;28;20058;-73
2022/09/09 10:05:17;;;;;;;10.60;2.60;;;;;;;-145.18;100.00;46648.69;4971989;28;20117;-74
2022/09/09 10:07:45;;;;;;;9.03;2.90;;;;;;;-145.18;100.00;46648.69;4972527;28;20109;-74
2022/09/09 10:10:19;;;;;;;10.30;2.23;;;;;;;-145.18;100.00;46648.69;4971805;28;20027;-74
2022/09/09 10:13:00;;;;;;;8.45;2.95;;;;;;;-145.18;100.00;46648.69;4972540;28;20091;-74
2022/09/09 10:15:40;;;;;;;10.47;2.50;;;;;;;-145.18;100.00;46650.63;4971487;28;20093;-73
2022/09/09 10:18:25;;;;;;;12.27;2.87;;;;;;;-145.18;100.00;46652.59;4954742;28;20023;-73
2022/09/09 10:21:09;;;;;;;10.63;2.90;;;;;;;-145.18;100.00;46654.53;4971124;28;20027;-73
2022/09/09 10:23:53;;;;;;;13.03;2.63;;;;;;;-145.18;100.00;46650.63;4971957;28;20034;-73
2022/09/09 10:26:42;;;;;;;10.50;2.47;;;;;;;-145.18;100.00;46654.53;4972243;28;20027;-73
2022/09/09 10:29:44;;;;;;;11.80;3.13;;;;;;;-145.18;100.00;46654.53;4971197;28;20027;-73
2022/09/09 10:32:12;;;;;;;10.93;2.27;;;;;;;-145.18;100.00;46662.34;4972244;28;20129;-73
2022/09/09 10:34:37;;;;;;;11.50;3.13;;;;;;;-145.18;100.00;46660.41;4971850;28;20030;-73
2022/09/09 10:37:17;;;;;;;10.67;2.33;;;;;;;-145.18;100.00;46658.44;4971879;28;20476;-73
2022/09/09 10:39:42;;;;;;;8.87;3.27;;;;;;;-145.18;100.00;46656.50;4967579;28;20034;-73
2022/09/09 10:42:16;;;;;;;10.50;2.80;;;;;;;-145.18;100.00;46658.44;4971712;28;20038;-73
2022/09/09 10:45:10;;;;;;;10.87;2.90;;;;;;;-145.18;100.00;46652.59;4971462;28;20109;-73
2022/09/09 10:47:54;;;;;;;9.83;2.20;;;;;;;-145.18;100.00;46654.53;4952566;29;20119;-73
2022/09/09 10:50:38;;;;;;;7.60;2.67;;;;;;;-145.18;100.00;46654.53;4951891;29;20556;-73
2022/09/09 10:53:18;;;;;;;12.60;2.80;;;;;;;-145.18;100.00;46652.59;4968987;28;20035;-73
2022/09/09 10:55:50;;;;;;;11.20;2.33;;;;;;;-145.18;100.00;46650.63;4971683;28;20074;-73
2022/09/09 10:58:34;;;;;;;10.20;3.00;;;;;;;-145.18;100.00;46654.53;4944201;29;20049;-74
2022/09/09 11:01:09;;;;;;;12.87;2.67;;;;;;;-145.18;100.00;46656.50;4952382;29;20035;-73
2022/09/09 11:03:39;;;;;;;11.38;2.78;;;;;;;-145.18;100.00;46652.59;4967386;28;20050;-73
2022/09/09 11:06:06;;;;;;;9.83;2.83;;;;;;;-145.18;100.00;46650.63;4971353;28;20072;-72
2022/09/09 11:08:38;;;;;;;10.73;3.00;;;;;;;-145.18;100.00;46650.63;4971560;28;20035;-73
2022/09/09 11:11:17;;;;;;;12.60;3.40;;;;;;;-145.18;100.00;46646.72;4990751;28;20049;-73
2022/09/09 11:13:53;;;;;;;12.00;3.30;;;;;;;-145.18;100.00;46646.72;4990829;28;20033;-73
2022/09/09 11:16:21;;;;;;;9.18;3.30;;;;;;;-145.18;100.00;46650.63;4990341;28;20467;-73
2022/09/09 11:18:47;;;;;;;10.20;3.10;;;;;;;-145.18;100.00;46642.81;4988553;28;20030;-73
2022/09/09 11:21:31;;;;;;;7.93;2.63;;;;;;;-145.18;100.00;46646.72;4988282;28;20073;-73
2022/09/09 11:24:11;;;;;;;15.07;3.17;;;;;;;-145.18;100.00;46648.69;4990611;28;20609;-73